Latest Weather Observations for Middle Percy Island

IDQ60801

Issued at 8:42 pm EST Monday 10 December 2018 (issued every 10 minutes, with the page automatically refreshed every 10 minutes)

About weather observations | Map of weather stations | Latest weather observations for QLD | Other Formats
Station Details ID: 200001 Name: MIDDLE PERCY ISLAND Lat: -21.66 Lon: 150.27 Height: 208.7 m
Data from the previous 72 hours. | See also: Recent months at Middle Percy Island
Date/Time
EST
Temp
°C
App
Temp
°C
Dew
Point
°C
Rel
Hum
%
Delta-T
°C
Wind Press
QNH
hPa
Press
MSL
hPa
Rain since
9am
mm
Dir  Spd
km/h
Gust
km/h
Spd
kts
Gust
kts
10/08:30pm 23.9 22.1 21.6 87 1.5 SE 33 48 18 26 1013.4 1012.2 0.0
10/08:00pm 24.0 21.8 21.5 86 1.7 SE 35 46 19 25 1013.1 1011.9 0.0
10/07:30pm 24.1 22.3 21.6 86 1.7 SE 33 48 18 26 1013.1 1011.9 0.0
10/07:00pm 24.1 22.2 21.4 85 1.8 SE 33 43 18 23 1013.1 1011.9 0.0
10/06:30pm 24.3 22.7 21.6 85 1.8 SE 32 44 17 24 1012.8 1011.6 0.0
10/06:00pm 24.7 23.1 21.6 83 2.1 SE 32 43 17 23 1012.4 1011.1 0.0
10/05:30pm 24.8 22.9 21.3 81 2.3 SE 33 46 18 25 1011.9 1010.6 0.0
10/05:00pm 25.5 24.3 21.6 79 2.6 SE 30 41 16 22 1011.6 1010.3 0.0
10/04:30pm 25.4 23.6 21.5 79 2.6 SE 33 46 18 25 1011.4 1010.1 0.0
10/04:00pm 25.2 23.6 21.9 82 2.2 SE 33 43 18 23 1011.4 1010.1 0.0
10/03:30pm 25.6 24.1 22.1 81 2.4 SE 33 41 18 22 1011.5 1010.2 0.0
10/03:00pm 25.5 24.0 21.8 80 2.5 SE 32 43 17 23 1011.7 1010.4 0.0
10/02:30pm 25.7 24.2 21.8 79 2.6 ESE 32 39 17 21 1011.7 1010.4 0.0
10/02:00pm 26.1 25.1 22.6 81 2.4 SE 32 41 17 22 1011.8 1010.5 0.0
10/01:30pm 26.7 25.5 22.3 77 3.0 ESE 32 43 17 23 1012.1 1010.8 0.0
10/01:00pm 26.4 25.0 22.3 78 2.8 SE 33 43 18 23 1012.4 1011.1 0.0
10/12:30pm 26.4 25.1 22.5 79 2.6 ESE 33 41 18 22 1012.5 1011.2 0.0
10/12:00pm 26.2 25.1 22.5 80 2.5 ESE 32 41 17 22 1012.9 1011.7 0.0
10/11:30am 25.3 24.0 22.4 84 2.0 ESE 33 46 18 25 1013.1 1011.9 0.0
10/11:00am 25.3 24.7 22.0 82 2.2 ESE 28 39 15 21 1013.3 1012.1 0.0
10/10:30am 24.6 22.9 21.7 84 1.9 ESE 33 43 18 23 1013.3 1012.1 0.0
10/10:00am 25.0 23.2 22.3 85 1.8 ESE 35 43 19 23 1013.2 1012.0 0.0
10/09:30am 24.8 23.8 22.7 88 1.4 SE 32 44 17 24 1013.2 1012.0 0.0
10/09:00am 23.0 23.0 21.6 92 0.9 ESE 24 39 13 21 1013.1 1011.9 2.6
10/08:30am 24.7 21.7 21.4 82 2.2 ESE 39 52 21 28 1012.9 1011.7 2.4
10/08:00am 24.9 22.4 21.6 82 2.2 SE 37 52 20 28 1012.9 1011.7 2.4
10/07:30am 24.7 21.8 21.6 83 2.1 SE 39 50 21 27 1012.9 1011.7 2.4
10/07:00am 24.1 20.5 21.0 83 2.1 SE 41 54 22 29 1012.5 1011.2 2.4
10/06:30am 24.2 21.2 20.7 81 2.3 SE 37 50 20 27 1012.2 1010.9 2.4
10/06:00am 23.7 20.9 20.2 81 2.3 SE 35 50 19 27 1012.1 1010.8 2.4
10/05:30am 23.7 20.4 20.8 84 1.9 SE 39 54 21 29 1011.7 1010.4 2.4
10/05:21am 23.6 21.0 20.7 84 1.9 SE 35 54 19 29 1011.6 1010.3 2.4
10/05:00am 23.6 19.9 20.7 84 1.9 SE 41 54 22 29 1011.4 1010.1 2.4
10/04:31am 23.6 20.6 20.7 84 1.9 SE 37 56 20 30 1011.3 1010.0 2.4
10/04:30am 23.6 21.0 20.7 84 1.9 SE 35 50 19 27 1011.3 1010.0 2.4
10/04:00am 23.6 21.4 20.7 84 1.9 SE 33 54 18 29 1011.1 1009.8 2.4
10/03:56am 23.6 21.4 20.7 84 1.9 SE 33 54 18 29 1011.0 1009.7 2.4
10/03:30am 23.7 20.2 20.4 82 2.2 SE 39 50 21 27 1011.1 1009.8 2.4
10/03:00am 23.7 21.6 21.0 85 1.8 SE 33 48 18 26 1011.1 1009.8 2.4
10/02:30am 23.6 21.7 21.3 87 1.5 SE 33 46 18 25 1011.2 1009.9 2.4
10/02:00am 23.6 20.8 21.1 86 1.7 SE 37 52 20 28 1011.3 1010.0 2.4
10/01:45am 23.5 21.6 21.4 88 1.4 SE 33 54 18 29 1011.4 1010.1 2.4
10/01:30am 23.5 20.9 21.4 88 1.4 SE 37 50 20 27 1011.6 1010.3 2.4
10/01:00am 23.4 20.4 21.3 88 1.4 SE 39 57 21 31 1012.0 1010.7 2.4
10/12:51am 23.8 21.5 21.3 86 1.7 SE 35 54 19 29 1012.1 1010.8 2.4
10/12:30am 23.8 21.3 21.7 88 1.4 SE 37 50 20 27 1012.3 1011.0 2.4
10/12:11am 23.8 21.3 21.7 88 1.4 SE 37 56 20 30 1012.3 1011.0 2.4
10/12:00am 23.9 21.0 21.6 87 1.5 SE 39 54 21 29 1012.5 1011.2 2.4
 
Date/Time
EST
Temp
°C
App
Temp
°C
Dew
Point
°C
Rel
Hum
%
Delta-T
°C
Wind Press
QNH
hPa
Press
MSL
hPa
Rain since
9am
mm
Dir  Spd
km/h
Gust
km/h
Spd
kts
Gust
kts
09/11:30pm 23.8 21.2 21.5 87 1.5 SE 37 52 20 28 1012.8 1011.6 2.4
09/11:00pm 23.8 20.0 21.3 86 1.7 SE 43 57 23 31 1012.9 1011.7 2.4
09/10:38pm 23.8 21.1 21.3 86 1.7 SE 37 57 20 31 1013.2 1012.0 2.4
09/10:30pm 23.8 19.7 20.7 83 2.0 SE 43 57 23 31 1013.3 1012.1 2.4
09/10:08pm 23.8 21.0 21.1 85 1.8 SE 37 57 20 31 1013.4 1012.2 2.4
09/10:00pm 23.9 19.8 20.8 83 2.0 SE 43 54 23 29 1013.5 1012.3 2.4
09/09:41pm 23.7 21.6 21.0 85 1.8 SE 33 52 18 28 1013.5 1012.3 2.4
09/09:30pm 23.7 20.8 20.8 84 1.9 SE 37 56 20 30 1013.4 1012.2 2.4
09/09:00pm 23.7 20.2 20.4 82 2.2 SE 39 54 21 29 1013.1 1011.9 2.4
09/08:33pm 23.8 20.6 21.1 85 1.8 SE 39 61 21 33 1012.9 1011.7 2.4
09/08:30pm 23.8 20.6 21.1 85 1.8 SE 39 54 21 29 1012.9 1011.7 2.4
09/08:07pm 23.7 21.3 21.0 85 1.8 SE 35 57 19 31 1012.7 1011.5 2.4
09/08:00pm 23.7 21.3 21.0 85 1.8 SE 35 52 19 28 1012.9 1011.7 2.4
09/07:30pm 23.7 20.7 20.6 83 2.0 SE 37 54 20 29 1012.9 1011.7 2.4
09/07:00pm 23.3 19.9 20.6 85 1.8 SSE 39 52 21 28 1012.4 1011.1 2.4
09/06:30pm 22.6 20.7 21.4 93 0.8 SE 33 46 18 25 1012.6 1011.4 2.4
09/06:05pm 22.9 20.9 21.9 94 0.7 SE 35 54 19 29 1012.3 1011.0 2.4
09/06:00pm 22.6 21.0 21.8 95 0.5 SE 33 48 18 26 1012.3 1011.0 2.4
09/05:42pm 22.4 20.6 21.6 95 0.5 ESE 33 52 18 28 1012.2 1010.9 2.2
09/05:30pm 22.8 20.3 21.6 93 0.8 SE 37 52 20 28 1012.0 1010.7 0.6
09/05:00pm 23.8 20.9 21.5 87 1.5 SE 39 56 21 30 1011.4 1010.1 0.0
09/04:54pm 23.8 22.4 21.9 89 1.3 SE 32 50 17 27 1011.3 1010.0 0.0
09/04:30pm 23.8 22.6 22.2 91 1.1 SE 32 46 17 25 1011.3 1010.0 0.0
09/04:19pm 23.8 22.5 22.1 90 1.1 SE 32 50 17 27 1011.2 1009.9 0.0
09/04:00pm 24.0 23.1 22.1 89 1.3 SE 30 44 16 24 1011.1 1009.8 0.0
09/03:43pm 24.1 22.7 22.2 89 1.3 SE 33 52 18 28 1011.1 1009.8 0.0
09/03:30pm 24.3 22.4 22.0 87 1.5 SE 35 50 19 27 1011.0 1009.7 0.0
09/03:00pm 24.7 23.5 22.2 86 1.7 SE 32 50 17 27 1011.2 1009.9 0.0
09/02:37pm 25.1 23.9 22.6 86 1.7 SE 33 52 18 28 1011.3 1010.0 0.0
09/02:30pm 24.3 22.0 22.0 87 1.5 SE 37 52 20 28 1011.3 1010.0 0.0
09/02:00pm 24.5 22.0 21.6 84 1.9 SE 37 50 20 27 1011.7 1010.4 0.0
09/01:30pm 24.7 22.7 22.6 88 1.4 SE 37 54 20 29 1011.6 1010.3 0.0
09/01:05pm 24.1 21.4 21.2 84 1.9 SE 37 57 20 31 1011.8 1010.5 0.0
09/01:00pm 24.3 21.3 21.4 84 1.9 SE 39 56 21 30 1011.8 1010.5 0.0
09/12:30pm 23.3 20.0 21.6 90 1.1 SE 41 63 22 34 1012.2 1010.9 0.0
09/12:13pm 23.0 20.8 21.5 91 1.0 ESE 35 54 19 29 1012.3 1011.0 0.0
09/12:00pm 24.1 20.8 20.8 82 2.2 SE 39 57 21 31 1012.4 1011.1 0.0
09/11:30am 24.9 22.3 21.4 81 2.3 SE 37 52 20 28 1012.8 1011.6 0.0
09/11:00am 25.3 22.1 21.8 81 2.3 SE 41 56 22 30 1013.0 1011.8 0.0
09/10:36am 24.8 22.2 21.5 82 2.2 SE 37 56 20 30 1013.1 1011.9 0.0
09/10:30am 24.7 21.2 21.2 81 2.3 SE 41 54 22 29 1013.1 1011.9 0.0
09/10:00am 24.9 21.5 21.4 81 2.3 SE 41 57 22 31 1013.3 1012.1 0.0
09/09:30am 24.4 21.0 21.3 83 2.1 ESE 41 59 22 32 1013.4 1012.2 0.0
09/09:23am 24.3 20.8 21.2 83 2.1 SE 41 59 22 32 1013.3 1012.1 0.0
09/09:00am 23.5 20.5 21.4 88 1.4 SE 39 57 21 31 1013.1 1011.9 17.0
09/08:31am 23.9 20.0 21.2 85 1.8 SE 43 61 23 33 1012.9 1011.7 17.0
09/08:30am 23.9 19.9 21.2 85 1.8 SE 44 61 24 33 1012.8 1011.6 17.0
09/08:00am 24.0 20.1 21.1 84 1.9 SE 43 57 23 31 1012.8 1011.6 17.0
09/07:37am 23.8 20.3 21.1 85 1.8 SE 41 61 22 33 1012.7 1011.5 17.0
09/07:30am 23.8 19.8 20.9 84 1.9 SE 43 57 23 31 1012.8 1011.6 17.0
09/07:00am 23.9 19.4 21.0 84 1.9 SE 46 63 25 34 1012.4 1011.1 17.0
09/06:30am 23.9 20.0 21.2 85 1.8 SE 43 63 23 34 1011.8 1010.5 17.0
09/06:04am 23.8 19.7 21.1 85 1.8 SE 44 65 24 35 1012.0 1010.7 17.0
09/06:00am 23.8 20.0 21.3 86 1.7 SE 43 57 23 31 1012.0 1010.7 17.0
09/05:30am 23.7 19.3 21.2 86 1.7 SE 46 63 25 34 1011.9 1010.6 17.0
09/05:02am 23.6 19.5 21.1 86 1.7 SE 44 65 24 35 1011.6 1010.3 17.0
09/05:00am 23.7 19.8 21.4 87 1.5 SE 44 59 24 32 1011.6 1010.3 17.0
09/04:30am 23.0 19.6 22.0 94 0.7 SE 43 61 23 33 1011.3 1010.0 17.0
09/04:00am 22.4 18.5 21.4 94 0.7 SE 44 63 24 34 1011.0 1009.7 16.8
09/03:30am 23.7 19.8 21.2 86 1.7 SE 43 63 23 34 1010.9 1009.6 16.6
09/03:00am 23.7 18.5 21.2 86 1.7 SE 50 69 27 37 1010.9 1009.6 16.6
09/02:30am 23.2 19.1 21.1 88 1.4 SE 44 67 24 36 1010.8 1009.5 16.6
09/02:00am 23.5 19.5 21.2 87 1.5 SE 44 67 24 36 1010.9 1009.6 16.6
09/01:30am 23.2 19.2 21.3 89 1.3 SE 44 67 24 36 1011.4 1010.1 16.6
09/01:05am 23.0 18.9 21.1 89 1.3 SE 44 63 24 34 1011.6 1010.3 16.6
09/01:00am 23.0 17.9 21.3 90 1.1 SE 50 65 27 35 1011.5 1010.2 16.6
09/12:30am 22.7 18.1 21.7 94 0.7 SE 48 69 26 37 1011.8 1010.5 16.6
09/12:00am 22.3 17.5 22.0 98 0.2 SE 50 70 27 38 1011.9 1010.6 16.6
 
Date/Time
EST
Temp
°C
App
Temp
°C
Dew
Point
°C
Rel
Hum
%
Delta-T
°C
Wind Press
QNH
hPa
Press
MSL
hPa
Rain since
9am
mm
Dir  Spd
km/h
Gust
km/h
Spd
kts
Gust
kts
08/11:30pm 21.9 16.5 21.6 98 0.2 SSE 52 74 28 40 1012.2 1010.9 16.6
08/11:00pm 21.6 16.1 21.4 99 0.1 SE 52 72 28 39 1012.9 1011.7 16.4
08/10:30pm 22.1 16.5 21.9 99 0.1 SE 54 74 29 40 1012.8 1011.6 15.4
08/10:00pm 22.0 17.1 21.8 99 0.1 SE 50 76 27 41 1013.0 1011.8 15.0
08/09:30pm 22.2 16.6 21.9 98 0.2 SE 54 78 29 42 1012.8 1011.6 14.4
08/09:00pm 22.1 16.9 21.9 99 0.1 SSE 52 78 28 42 1012.5 1011.2 13.8
08/08:30pm 21.9 16.6 21.7 99 0.1 SSE 52 72 28 39 1012.4 1011.1 12.2
08/08:00pm 21.8 16.8 21.6 99 0.1 SE 50 72 27 39 1012.5 1011.2 11.2
08/07:30pm 21.9 15.8 21.7 99 0.1 SE 56 80 30 43 1012.7 1011.5 10.6
08/07:00pm 21.9 17.3 21.7 99 0.1 SSE 48 70 26 38 1012.5 1011.2 10.0
08/06:30pm 21.9 17.7 21.7 99 0.1 SE 46 67 25 36 1012.2 1010.9 8.4
08/06:02pm 21.8 16.4 21.5 98 0.2 SE 52 72 28 39 1012.0 1010.7 7.8
08/06:00pm 21.8 16.0 21.5 98 0.2 SE 54 70 29 38 1011.9 1010.6 7.8
08/05:30pm 21.7 16.6 21.4 98 0.2 SE 50 74 27 40 1012.0 1010.7 7.2
08/05:00pm 22.0 17.3 21.5 97 0.3 SSE 48 70 26 38 1011.4 1010.1 6.4
08/04:30pm 22.4 17.6 21.9 97 0.3 SSE 50 74 27 40 1011.3 1010.0 6.2
08/04:02pm 22.4 18.1 22.1 98 0.2 SSE 48 69 26 37 1011.2 1009.9 6.2
08/04:00pm 22.4 18.1 22.1 98 0.2 SSE 48 65 26 35 1011.2 1009.9 6.2
08/03:30pm 22.3 18.7 22.0 98 0.2 SSE 44 67 24 36 1011.3 1010.0 6.0
08/03:00pm 22.1 18.0 21.9 99 0.1 SE 46 70 25 38 1011.6 1010.3 5.4
08/02:44pm 22.0 18.8 21.8 99 0.1 SSE 41 61 22 33 1011.9 1010.6 5.0
08/02:30pm 21.8 18.1 21.5 98 0.2 SE 43 59 23 32 1011.9 1010.6 4.2
08/02:06pm 21.9 18.1 21.6 98 0.2 SSE 44 63 24 34 1011.8 1010.5 2.8
08/02:00pm 22.0 18.2 21.7 98 0.2 SE 44 61 24 33 1012.1 1010.8 2.2
08/01:30pm 21.9 18.0 21.4 97 0.3 SSE 44 69 24 37 1012.5 1011.2 1.8
08/01:00pm 22.1 18.8 21.6 97 0.3 SE 41 61 22 33 1013.0 1011.8 1.4
08/12:31pm 23.3 19.3 21.0 87 1.5 SE 43 61 23 33 1012.6 1011.4 0.0
08/12:30pm 23.3 19.4 21.2 88 1.4 SE 43 59 23 32 1012.6 1011.4 0.0
08/12:04pm 23.0 19.3 20.7 87 1.5 SE 41 59 22 32 1012.7 1011.5 0.0
08/12:00pm 23.5 19.4 20.8 85 1.8 SE 43 61 23 33 1012.9 1011.7 0.0
08/11:35am 23.4 19.3 20.7 85 1.8 SE 43 63 23 34 1012.9 1011.7 0.0
08/11:30am 23.5 19.4 20.8 85 1.8 SE 43 57 23 31 1013.2 1012.0 0.0
08/11:09am 23.9 20.2 20.8 83 2.0 SE 41 59 22 32 1013.3 1012.1 0.0
08/11:00am 24.1 19.8 20.8 82 2.2 SE 44 61 24 33 1013.4 1012.2 0.0
08/10:31am 24.2 20.9 20.9 82 2.2 SE 39 57 21 31 1013.5 1012.3 0.0
08/10:30am 24.3 20.7 21.0 82 2.2 SE 41 57 22 31 1013.5 1012.3 0.0
08/10:02am 24.4 20.5 21.1 82 2.2 SE 43 63 23 34 1013.5 1012.3 0.0
08/10:00am 24.4 20.3 21.1 82 2.2 SE 44 63 24 34 1013.6 1012.4 0.0
08/09:30am 24.9 21.1 21.6 82 2.2 SE 44 65 24 35 1013.5 1012.3 0.0
08/09:00am 25.0 21.5 21.9 83 2.1 SE 43 61 23 33 1013.3 1012.1 13.6
08/08:30am 23.9 19.8 20.8 83 2.0 SE 43 65 23 35 1013.3 1012.1 13.6
08/08:03am 23.5 19.3 20.6 84 1.9 SE 43 63 23 34 1013.4 1012.2 13.6
08/08:00am 23.5 19.4 20.8 85 1.8 SE 43 59 23 32 1013.3 1012.1 13.6
08/07:30am 23.2 19.5 20.7 86 1.6 SE 41 59 22 32 1013.1 1011.9 13.6
08/07:01am 23.2 19.8 20.7 86 1.6 SE 39 59 21 32 1012.9 1011.7 13.6
08/07:00am 23.2 19.8 20.7 86 1.6 SE 39 54 21 29 1012.9 1011.7 13.6
08/06:30am 23.0 19.0 20.9 88 1.4 SE 43 65 23 35 1012.5 1011.2 13.6
08/06:00am 23.2 19.0 20.9 87 1.5 SE 44 65 24 35 1012.2 1010.9 13.6
08/05:30am 23.2 19.6 20.9 87 1.5 SE 41 61 22 33 1012.2 1010.9 13.6
08/05:00am 22.8 18.1 20.7 88 1.4 SE 46 65 25 35 1011.8 1010.5 13.6
08/04:30am 22.0 17.9 20.8 93 0.8 SSE 43 67 23 36 1011.7 1010.4 13.6
08/04:07am 21.4 17.6 20.6 95 0.5 SE 41 61 22 33 1011.6 1010.3 13.6
08/04:00am 20.9 16.5 20.2 96 0.5 SE 43 59 23 32 1011.8 1010.5 13.6
08/03:30am 21.2 16.8 20.4 95 0.5 SE 44 65 24 35 1011.7 1010.4 13.6
08/03:00am 23.1 19.3 20.6 86 1.6 SSE 41 61 22 33 1011.4 1010.1 13.4
08/02:39am 23.3 19.0 20.4 84 1.9 SE 43 63 23 34 1011.6 1010.3 13.4
08/02:30am 23.3 18.5 20.4 84 1.9 SE 46 61 25 33 1011.5 1010.2 13.4
08/02:00am 23.0 18.9 20.0 83 1.9 SE 41 61 22 33 1011.7 1010.4 13.4
08/01:38am 21.3 15.9 20.1 93 0.8 SE 48 69 26 37 1012.2 1010.9 13.4
08/01:30am 20.9 14.0 19.2 90 1.1 SE 54 69 29 37 1012.5 1011.2 13.2
08/01:00am 23.6 18.3 20.3 82 2.2 SE 48 69 26 37 1012.3 1011.0 13.2
08/12:31am 23.2 19.0 20.9 87 1.5 SE 44 63 24 34 1012.6 1011.4 13.2
08/12:30am 23.3 19.3 21.2 88 1.4 SE 44 61 24 33 1012.6 1011.4 13.2
08/12:00am 23.1 19.2 21.2 89 1.3 SE 43 65 23 35 1012.8 1011.6 13.2
 
Date/Time
EST
Temp
°C
App
Temp
°C
Dew
Point
°C
Rel
Hum
%
Delta-T
°C
Wind Press
QNH
hPa
Press
MSL
hPa
Rain since
9am
mm
Dir  Spd
km/h
Gust
km/h
Spd
kts
Gust
kts
07/11:37pm 22.9 18.9 21.2 90 1.1 SE 44 63 24 34 1013.0 1011.8 13.2
07/11:30pm 22.9 18.8 20.8 88 1.4 SE 43 59 23 32 1013.2 1012.0 13.2
07/11:00pm 22.3 19.5 21.8 97 0.3 SE 39 59 21 32 1013.4 1012.2 13.2
07/10:30pm 22.2 19.1 21.9 98 0.2 SE 41 59 22 32 1013.3 1012.1 13.2
07/10:11pm 22.0 20.3 21.3 96 0.5 SE 32 52 17 28 1013.7 1012.5 11.6
07/10:00pm 22.9 21.3 21.9 94 0.7 SE 33 50 18 27 1013.7 1012.5 7.0
07/09:30pm 22.8 19.0 21.4 92 0.9 SE 43 63 23 34 1013.4 1012.2 7.0
07/09:00pm 22.5 17.1 21.5 94 0.7 SE 52 74 28 40 1013.4 1012.2 7.0

Other Formats:

Comma delimited format used in spreadsheet applications
http://www.bom.gov.au/fwo/IDQ60801/IDQ60801.94372.axf

JavaScript Object Notation format (JSON) in row-major order
http://www.bom.gov.au/fwo/IDQ60801/IDQ60801.94372.json